Time;durP1;ratioP1;P1;durP2;ratioP2;P2;SDS_P1;SDS_P2;PMS_P1;PMS_P2;Temp;Humidity;BMP_temperature;BMP_pressure;BME280_temperature;BME280_humidity;BME280_pressure;Samples;Min_cycle;Max_cycle;Signal;HPM_P1;HPM_P2
2022/06/12 00:00:30;;;;;;;;;;;;;;;12.17;100.00;102218.31;2613577;36;20440;-57
2022/06/12 00:02:59;;;;;;;;;;;;;;;12.16;100.00;102218.44;2614086;36;20352;-60
2022/06/12 00:05:29;;;;;;;;;;;;;;;12.17;100.00;102223.72;2613751;36;20448;-59
2022/06/12 00:07:57;;;;;;;;;;;;;;;12.09;100.00;102228.84;2613580;36;19946;-59
2022/06/12 00:10:28;;;;;;;;;;;;;;;12.04;100.00;102223.78;2613886;31;19951;-59
2022/06/12 00:12:57;;;;;;;;;;;;;;;12.04;100.00;102233.69;2613541;36;19954;-57
2022/06/12 00:15:26;;;;;;;;;;;;;;;12.05;100.00;102235.44;2613817;36;19954;-57
2022/06/12 00:17:55;;;;;;;;;;;;;;;12.02;100.00;102235.66;2613504;36;19969;-57
2022/06/12 00:20:25;;;;;;;;;;;;;;;12.00;100.00;102229.50;2613672;36;20039;-58
2022/06/12 00:22:54;;;;;;;;;;;;;;;11.86;100.00;102223.22;2613805;36;19947;-60
2022/06/12 00:25:24;;;;;;;;;;;;;;;11.76;100.00;102224.88;2612732;36;19954;-57
2022/06/12 00:27:55;;;;;;;;;;;;;;;11.79;100.00;102224.66;2612606;36;20521;-59
2022/06/12 00:30:25;;;;;;;;;;;;;;;11.80;100.00;102217.44;2613529;36;19950;-59
2022/06/12 00:32:54;;;;;;;;;;;;;;;11.86;100.00;102219.69;2613423;36;20041;-60
2022/06/12 00:35:23;;;;;;;;;;;;;;;11.76;100.00;102219.47;2613629;36;19958;-56
2022/06/12 00:37:52;;;;;;;;;;;;;;;11.72;100.00;102212.59;2613265;36;20433;-60
2022/06/12 00:40:21;;;;;;;;;;;;;;;11.78;100.00;102209.47;2612626;36;19957;-60
2022/06/12 00:42:51;;;;;;;;;;;;;;;11.79;100.00;102204.91;2613573;31;19974;-58
2022/06/12 00:45:33;;;;;;;;;;;;;;;11.65;100.00;102203.22;2613501;36;19973;-57
2022/06/12 00:48:03;;;;;;;;;;;;;;;11.68;100.00;102203.84;2613010;36;19946;-60
2022/06/12 00:50:32;;;;;;;;;;;;;;;11.73;100.00;102203.53;2613738;36;20029;-60
2022/06/12 00:53:00;;;;;;;;;;;;;;;11.77;100.00;102207.72;2613536;36;20415;-60
2022/06/12 00:55:33;;;;;;;;;;;;;;;11.74;100.00;102205.25;2612847;36;19947;-59
2022/06/12 00:58:04;;;;;;;;;;;;;;;11.77;100.00;102210.44;2613017;36;19947;-60
2022/06/12 01:00:35;;;;;;;;;;;;;;;11.68;100.00;102211.09;2614061;31;19951;-58
2022/06/12 01:03:03;;;;;;;;;;;;;;;11.74;100.00;102210.66;2613463;36;20000;-59
2022/06/12 01:08:13;;;;;;;;;;;;;;;11.57;100.00;102207.34;2613512;36;20391;-59
2022/06/12 01:10:43;;;;;;;;;;;;;;;11.60;100.00;102205.38;2612586;36;19950;-58
2022/06/12 01:13:13;;;;;;;;;;;;;;;11.68;100.00;102195.75;2613731;36;19965;-59
2022/06/12 01:15:45;;;;;;;;;;;;;;;11.69;100.00;102200.19;2613443;36;19962;-58
2022/06/12 01:18:16;;;;;;;;;;;;;;;11.66;100.00;102197.72;2613296;36;19946;-57
2022/06/12 01:20:47;;;;;;;;;;;;;;;11.63;100.00;102197.06;2613680;36;20380;-58
2022/06/12 01:23:27;;;;;;;;;;;;;;;11.61;100.00;102204.41;2613041;36;19954;-58
2022/06/12 01:26:13;;;;;;;;;;;;;;;11.61;100.00;102197.16;2613288;36;19950;-58
2022/06/12 01:28:48;;;;;;;;;;;;;;;11.76;100.00;102203.28;2612869;36;19969;-57
2022/06/12 01:31:24;;;;;;;;;;;;;;;11.77;100.00;102205.03;2613500;36;19951;-57
2022/06/12 01:33:56;;;;;;;;;;;;;;;11.73;100.00;102199.00;2613743;36;19951;-58
2022/06/12 01:36:31;;;;;;;;;;;;;;;11.76;100.00;102200.59;2612964;36;19950;-59
2022/06/12 01:39:04;;;;;;;;;;;;;;;11.75;100.00;102196.19;2613223;36;19950;-58
2022/06/12 01:41:35;;;;;;;;;;;;;;;11.76;100.00;102192.50;2612650;36;19954;-58
2022/06/12 01:44:13;;;;;;;;;;;;;;;11.76;100.00;102189.81;2613017;36;19955;-58
2022/06/12 01:46:45;;;;;;;;;;;;;;;11.81;100.00;102193.03;2613267;31;20582;-59
2022/06/12 01:49:16;;;;;;;;;;;;;;;11.69;100.00;102199.31;2613409;36;19951;-57
2022/06/12 01:51:50;;;;;;;;;;;;;;;11.75;100.00;102193.50;2613216;36;19974;-58
2022/06/12 01:54:20;;;;;;;;;;;;;;;11.85;100.00;102197.25;2612527;36;19946;-58
2022/06/12 01:56:53;;;;;;;;;;;;;;;11.81;100.00;102198.44;2613655;36;19951;-58
2022/06/12 01:59:27;;;;;;;;;;;;;;;11.79;100.00;102205.78;2613832;31;19977;-60
2022/06/12 02:01:58;;;;;;;;;;;;;;;11.71;100.00;102197.38;2614162;36;20567;-59
2022/06/12 02:04:30;;;;;;;;;;;;;;;11.70;100.00;102199.22;2614075;36;19950;-59
2022/06/12 02:07:01;;;;;;;;;;;;;;;11.78;100.00;102195.97;2614080;36;19947;-60
2022/06/12 02:09:31;;;;;;;;;;;;;;;11.78;100.00;102187.88;2613745;36;19981;-60
2022/06/12 02:14:48;;;;;;;;;;;;;;;11.77;100.00;102196.09;2614064;36;19955;-59
2022/06/12 02:17:19;;;;;;;;;;;;;;;11.73;100.00;102196.31;2614325;36;20334;-59
2022/06/12 02:19:48;;;;;;;;;;;;;;;11.71;100.00;102192.00;2613954;36;19954;-58
2022/06/12 02:22:18;;;;;;;;;;;;;;;11.67;100.00;102188.63;2613651;36;19950;-59
2022/06/12 02:24:49;;;;;;;;;;;;;;;11.75;100.00;102193.50;2613671;36;19977;-60
2022/06/12 02:27:20;;;;;;;;;;;;;;;11.81;100.00;102192.19;2613289;36;19985;-59
2022/06/12 02:29:53;;;;;;;;;;;;;;;11.85;100.00;102191.84;2614058;36;19958;-60
2022/06/12 02:32:23;;;;;;;;;;;;;;;11.80;100.00;102191.31;2613720;36;19955;-60
2022/06/12 02:34:53;;;;;;;;;;;;;;;11.72;100.00;102191.88;2614177;36;20075;-58
2022/06/12 02:37:25;;;;;;;;;;;;;;;11.76;100.00;102195.19;2613540;36;19955;-58
2022/06/12 02:39:57;;;;;;;;;;;;;;;11.75;100.00;102182.72;2613133;36;19950;-60
2022/06/12 02:42:28;;;;;;;;;;;;;;;11.79;100.00;102176.09;2613582;36;19953;-59
2022/06/12 02:45:01;;;;;;;;;;;;;;;11.90;100.00;102180.72;2613898;36;19950;-59
2022/06/12 02:47:32;;;;;;;;;;;;;;;11.95;100.00;102181.28;2613718;36;19957;-59
2022/06/12 02:50:01;;;;;;;;;;;;;;;11.92;100.00;102185.03;2614303;36;20341;-59
2022/06/12 02:52:33;;;;;;;;;;;;;;;11.94;100.00;102184.09;2613349;36;19946;-60
2022/06/12 02:55:05;;;;;;;;;;;;;;;11.96;100.00;102171.34;2613629;36;20491;-59
2022/06/12 02:57:36;;;;;;;;;;;;;;;11.89;100.00;102171.75;2613922;36;20292;-59
2022/06/12 03:00:11;;;;;;;;;;;;;;;11.97;100.00;102173.06;2613886;36;19954;-58
2022/06/12 03:02:41;;;;;;;;;;;;;;;11.95;100.00;102180.41;2614018;36;20319;-59
2022/06/12 03:05:14;;;;;;;;;;;;;;;11.96;100.00;102182.16;2613604;36;19973;-61
2022/06/12 03:07:42;;;;;;;;;;;;;;;12.05;100.00;102181.47;2613284;36;19955;-60
2022/06/12 03:10:14;;;;;;;;;;;;;;;11.98;100.00;102185.59;2613315;36;20016;-59
2022/06/12 03:12:42;;;;;;;;;;;;;;;11.99;100.00;102181.91;2613851;36;19947;-61
2022/06/12 03:15:28;;;;;;;;;;;;;;;11.94;100.00;102173.28;2613769;36;19961;-59
2022/06/12 03:17:57;;;;;;;;;;;;;;;11.96;100.00;102176.75;2613937;36;19959;-59
2022/06/12 03:20:29;;;;;;;;;;;;;;;11.89;100.00;102176.28;2613621;36;19955;-59
2022/06/12 03:23:01;;;;;;;;;;;;;;;11.88;100.00;102179.97;2613826;36;19957;-58
2022/06/12 03:25:34;;;;;;;;;;;;;;;11.88;100.00;102186.25;2613363;31;19950;-58
2022/06/12 03:28:05;;;;;;;;;;;;;;;11.86;100.00;102181.91;2613411;36;19950;-59
2022/06/12 03:30:38;;;;;;;;;;;;;;;11.96;100.00;102183.00;2613226;36;19947;-59
2022/06/12 03:33:10;;;;;;;;;;;;;;;11.99;100.00;102176.53;2613946;36;19962;-59
2022/06/12 03:35:45;;;;;;;;;;;;;;;12.02;100.00;102187.09;2614256;36;20344;-58
2022/06/12 03:38:18;;;;;;;;;;;;;;;11.98;100.00;102182.88;2615139;31;20429;-61
2022/06/12 03:40:51;;;;;;;;;;;;;;;11.99;100.00;102187.31;2613382;36;19946;-58
2022/06/12 03:43:24;;;;;;;;;;;;;;;11.96;100.00;102182.16;2613988;36;19973;-58
2022/06/12 03:46:00;;;;;;;;;;;;;;;11.96;100.00;102192.94;2613446;36;19958;-60
2022/06/12 03:48:30;;;;;;;;;;;;;;;11.97;100.00;102189.25;2613790;36;19953;-60
2022/06/12 03:51:08;;;;;;;;;;;;;;;11.97;100.00;102189.25;2613907;36;19946;-60
2022/06/12 03:53:40;;;;;;;;;;;;;;;11.91;100.00;102185.13;2613325;36;19951;-60
2022/06/12 03:59:03;;;;;;;;;;;;;;;11.99;100.00;102187.31;2612819;36;19947;-60
2022/06/12 04:01:34;;;;;;;;;;;;;;;12.07;100.00;102188.47;2613352;36;19946;-59
2022/06/12 04:04:03;;;;;;;;;;;;;;;12.13;100.00;102197.09;2613645;36;19974;-59
2022/06/12 04:06:32;;;;;;;;;;;;;;;12.18;100.00;102195.78;2613811;36;19977;-59
2022/06/12 04:09:04;;;;;;;;;;;;;;;12.20;100.00;102212.69;2614214;31;20018;-61
2022/06/12 04:11:33;;;;;;;;;;;;;;;12.21;100.00;102209.03;2613175;36;19954;-60
2022/06/12 04:14:02;;;;;;;;;;;;;;;12.27;100.00;102197.78;2613116;36;19954;-60
2022/06/12 04:16:32;;;;;;;;;;;;;;;12.23;100.00;102200.81;2613921;36;19980;-54
2022/06/12 04:19:04;;;;;;;;;;;;;;;12.33;100.00;102190.22;2613664;36;19950;-58
2022/06/12 04:21:36;;;;;;;;;;;;;;;12.37;100.00;102197.97;2613897;36;19951;-58
2022/06/12 04:24:07;;;;;;;;;;;;;;;12.39;100.00;102190.59;2613725;36;20669;-61
2022/06/12 04:26:36;;;;;;;;;;;;;;;12.55;100.00;102195.72;2613254;36;20727;-59
2022/06/12 04:29:06;;;;;;;;;;;;;;;12.58;100.00;102187.38;2613477;36;19951;-58
2022/06/12 04:31:35;;;;;;;;;;;;;;;12.59;100.00;102193.66;2613786;36;19957;-58
2022/06/12 04:34:15;;;;;;;;;;;;;;;12.59;100.00;102196.34;2613962;36;19970;-58
2022/06/12 04:36:44;;;;;;;;;;;;;;;12.76;100.00;102206.72;2613530;36;19955;-61
2022/06/12 04:39:13;;;;;;;;;;;;;;;12.76;100.00;102197.75;2613267;36;19946;-57
2022/06/12 04:41:42;;;;;;;;;;;;;;;12.82;100.00;102197.28;2613339;36;19973;-59
2022/06/12 04:44:10;;;;;;;;;;;;;;;12.88;100.00;102199.53;2613335;36;20467;-60
2022/06/12 04:46:40;;;;;;;;;;;;;;;13.00;100.00;102194.13;2613501;36;19947;-59
2022/06/12 04:49:09;;;;;;;;;;;;;;;13.02;100.00;102203.00;2613531;36;19962;-59
2022/06/12 04:51:39;;;;;;;;;;;;;;;13.01;100.00;102196.72;2613390;31;19953;-58
2022/06/12 04:54:07;;;;;;;;;;;;;;;13.13;100.00;102201.19;2613429;36;20246;-59
2022/06/12 04:56:36;;;;;;;;;;;;;;;13.16;100.00;102197.34;2613559;36;19953;-59
2022/06/12 04:59:05;;;;;;;;;;;;;;;13.22;100.00;102199.59;2613816;36;19970;-60
2022/06/12 05:01:34;;;;;;;;;;;;;;;13.33;100.00;102196.88;2613509;36;20026;-59
2022/06/12 05:04:02;;;;;;;;;;;;;;;13.35;100.00;102195.94;2613048;36;19977;-60
2022/06/12 05:06:30;;;;;;;;;;;;;;;13.38;100.00;102193.84;2613558;36;20424;-58
2022/06/12 05:09:01;;;;;;;;;;;;;;;13.39;100.00;102194.72;2613281;36;19951;-58
2022/06/12 05:11:29;;;;;;;;;;;;;;;13.48;100.00;102177.75;2613151;36;20440;-61
2022/06/12 05:13:58;;;;;;;;;;;;;;;13.61;100.00;102194.72;2613932;36;19947;-62
2022/06/12 05:16:30;;;;;;;;;;;;;;;13.72;100.00;102190.28;2613064;31;19966;-62
2022/06/12 05:18:59;;;;;;;;;;;;;;;13.76;100.00;102191.78;2612822;31;19946;-59
2022/06/12 05:21:28;;;;;;;;;;;;;;;13.71;100.00;102194.00;2613288;36;19951;-59
2022/06/12 05:23:57;;;;;;;;;;;;;;;13.78;100.00;102200.63;2612813;36;20089;-62
2022/06/12 05:26:28;;;;;;;;;;;;;;;13.88;100.00;102198.03;2613315;31;20344;-58
2022/06/12 05:28:56;;;;;;;;;;;;;;;13.92;100.00;102191.38;2614176;31;19985;-59
2022/06/12 05:31:24;;;;;;;;;;;;;;;14.01;100.00;102196.88;2614178;36;19951;-61
2022/06/12 05:33:53;;;;;;;;;;;;;;;13.99;100.00;102198.88;2614078;36;19954;-61
2022/06/12 05:36:22;;;;;;;;;;;;;;;14.08;100.00;102201.81;2613950;31;19950;-62
2022/06/12 05:38:50;;;;;;;;;;;;;;;14.19;100.00;102204.47;2614270;36;20476;-60
2022/06/12 05:41:19;;;;;;;;;;;;;;;14.34;100.00;102202.38;2614274;36;20356;-60
2022/06/12 05:43:49;;;;;;;;;;;;;;;14.29;100.00;102200.03;2614653;36;20360;-59
2022/06/12 05:46:19;;;;;;;;;;;;;;;14.43;100.00;102198.00;2613920;36;19946;-58
2022/06/12 05:48:47;;;;;;;;;;;;;;;14.65;100.00;102206.09;2614061;36;20440;-60
2022/06/12 05:51:17;;;;;;;;;;;;;;;14.70;100.00;102208.41;2618084;36;19950;-59
2022/06/12 05:53:46;;;;;;;;;;;;;;;14.76;100.00;102201.63;2614354;36;20507;-60
2022/06/12 05:56:16;;;;;;;;;;;;;;;14.90;100.00;102212.16;2614045;36;20136;-63
2022/06/12 05:58:44;;;;;;;;;;;;;;;14.75;100.00;102211.59;2614278;31;19950;-61
2022/06/12 06:01:17;;;;;;;;;;;;;;;14.88;100.00;102216.81;2613477;36;19954;-59
2022/06/12 06:03:45;;;;;;;;;;;;;;;15.02;100.00;102210.22;2612660;36;20585;-59
2022/06/12 06:06:16;;;;;;;;;;;;;;;15.23;100.00;102207.50;2613557;36;19989;-58
2022/06/12 06:08:45;;;;;;;;;;;;;;;15.30;100.00;102211.41;2613935;36;19947;-59
2022/06/12 06:11:13;;;;;;;;;;;;;;;15.14;100.00;102216.44;2613402;36;19951;-60
2022/06/12 06:13:41;;;;;;;;;;;;;;;15.45;100.00;102216.50;2613981;36;19950;-58
2022/06/12 06:16:09;;;;;;;;;;;;;;;15.52;100.00;102213.09;2613795;36;19954;-62
2022/06/12 06:18:41;;;;;;;;;;;;;;;15.70;100.00;102215.16;2614745;36;20068;-61
2022/06/12 06:21:11;;;;;;;;;;;;;;;16.01;100.00;102212.44;2614651;36;20383;-60
2022/06/12 06:23:39;;;;;;;;;;;;;;;16.34;100.00;102215.78;2613191;36;19969;-59
2022/06/12 06:26:08;;;;;;;;;;;;;;;16.44;100.00;102209.38;2613480;36;19947;-62
2022/06/12 06:28:37;;;;;;;;;;;;;;;17.00;100.00;102209.66;2613686;36;19947;-60
2022/06/12 06:31:05;;;;;;;;;;;;;;;16.80;100.00;102206.94;2615190;31;20348;-59
2022/06/12 06:33:33;;;;;;;;;;;;;;;17.05;100.00;102209.22;2613866;36;19947;-59
2022/06/12 06:36:04;;;;;;;;;;;;;;;16.89;100.00;102213.41;2614439;36;20406;-58
2022/06/12 06:38:32;;;;;;;;;;;;;;;16.75;100.00;102220.09;2613232;36;20466;-60
2022/06/12 06:41:00;;;;;;;;;;;;;;;16.88;100.00;102219.00;2614356;31;20230;-60
2022/06/12 06:43:28;;;;;;;;;;;;;;;16.91;100.00;102218.72;2613908;36;20018;-61
2022/06/12 06:48:37;;;;;;;;;;;;;;;17.01;100.00;102225.00;2613889;36;20466;-61
2022/06/12 06:51:08;;;;;;;;;;;;;;;17.05;100.00;102237.31;2613896;36;20431;-60
2022/06/12 06:53:36;;;;;;;;;;;;;;;17.42;100.00;102228.34;2613795;36;19986;-60
2022/06/12 06:56:04;;;;;;;;;;;;;;;16.92;100.00;102236.75;2613047;36;19961;-58
2022/06/12 06:58:32;;;;;;;;;;;;;;;17.27;100.00;102224.34;2613845;36;19950;-59
2022/06/12 07:01:01;;;;;;;;;;;;;;;17.21;100.00;102223.09;2613872;36;19951;-61
2022/06/12 07:03:30;;;;;;;;;;;;;;;17.19;100.00;102233.25;2613615;31;19946;-59
2022/06/12 07:05:59;;;;;;;;;;;;;;;17.61;100.00;102223.84;2613876;36;19967;-61
2022/06/12 07:08:29;;;;;;;;;;;;;;;17.69;100.00;102229.38;2613422;36;19947;-60
2022/06/12 07:10:58;;;;;;;;;;;;;;;17.69;100.00;102234.84;2613637;36;19954;-59
2022/06/12 07:13:27;;;;;;;;;;;;;;;17.50;100.00;102231.19;2613625;36;19946;-59
2022/06/12 07:15:55;;;;;;;;;;;;;;;17.40;100.00;102233.09;2614419;36;19950;-58
2022/06/12 07:18:23;;;;;;;;;;;;;;;17.84;100.00;102230.63;2613574;36;20015;-59
2022/06/12 07:20:53;;;;;;;;;;;;;;;18.07;100.00;102232.97;2613571;36;19955;-59
2022/06/12 07:23:22;;;;;;;;;;;;;;;18.32;100.00;102236.00;2613039;36;19969;-59
2022/06/12 07:25:55;;;;;;;;;;;;;;;18.40;100.00;102227.88;2613061;36;19974;-59
2022/06/12 07:28:24;;;;;;;;;;;;;;;18.77;100.00;102234.19;2613433;36;19977;-60
2022/06/12 07:30:52;;;;;;;;;;;;;;;18.96;100.00;102230.47;2614158;36;20292;-61
2022/06/12 07:33:21;;;;;;;;;;;;;;;18.71;100.00;102230.22;2613461;36;19947;-60
2022/06/12 07:35:50;;;;;;;;;;;;;;;18.82;100.00;102227.28;2614194;31;19950;-59
2022/06/12 07:38:20;;;;;;;;;;;;;;;18.93;100.00;102230.78;2613144;36;19947;-59
2022/06/12 07:40:49;;;;;;;;;;;;;;;19.25;100.00;102217.38;2613447;36;20348;-61
2022/06/12 07:43:20;;;;;;;;;;;;;;;19.33;100.00;102221.19;2613749;36;19959;-61
2022/06/12 07:45:48;;;;;;;;;;;;;;;19.21;100.00;102213.28;2614125;36;19954;-59
2022/06/12 07:48:17;;;;;;;;;;;;;;;19.33;100.00;102216.59;2614374;36;20357;-59
2022/06/12 07:50:47;;;;;;;;;;;;;;;19.70;100.00;102214.56;2614151;36;19951;-62
2022/06/12 07:53:16;;;;;;;;;;;;;;;19.74;100.00;102214.09;2613895;36;19951;-61
2022/06/12 07:55:45;;;;;;;;;;;;;;;19.12;100.00;102219.69;2613021;31;19950;-59
2022/06/12 07:58:13;;;;;;;;;;;;;;;19.08;100.00;102219.16;2613555;36;20471;-60
2022/06/12 08:00:44;;;;;;;;;;;;;;;19.20;100.00;102217.03;2613278;36;20481;-59
2022/06/12 08:03:13;;;;;;;;;;;;;;;19.46;100.00;102218.88;2613851;36;19957;-58
2022/06/12 08:05:41;;;;;;;;;;;;;;;19.35;100.00;102214.56;2613615;36;19958;-59
2022/06/12 08:08:09;;;;;;;;;;;;;;;19.53;100.00;102213.63;2613391;36;20322;-62
2022/06/12 08:10:37;;;;;;;;;;;;;;;19.95;100.00;102212.84;2612959;36;19986;-59
2022/06/12 08:13:06;;;;;;;;;;;;;;;19.67;100.00;102206.69;2613457;36;19981;-59
2022/06/12 08:15:35;;;;;;;;;;;;;;;19.94;100.00;102205.66;2613439;36;19946;-60
2022/06/12 08:18:07;;;;;;;;;;;;;;;20.48;100.00;102216.22;2613159;36;20452;-59
2022/06/12 08:20:35;;;;;;;;;;;;;;;20.41;100.00;102217.94;2613346;36;19977;-58
2022/06/12 08:23:05;;;;;;;;;;;;;;;20.54;100.00;102218.28;2613274;36;19951;-60
2022/06/12 08:25:34;;;;;;;;;;;;;;;20.05;100.00;102212.69;2613281;36;19982;-61
2022/06/12 08:28:02;;;;;;;;;;;;;;;20.01;100.00;102211.31;2613284;36;20428;-59
2022/06/12 08:30:34;;;;;;;;;;;;;;;19.58;100.00;102214.88;2614419;36;20348;-59
2022/06/12 08:33:02;;;;;;;;;;;;;;;19.41;100.00;102216.63;2613679;36;19950;-59
2022/06/12 08:35:33;;;;;;;;;;;;;;;20.01;100.00;102217.66;2613517;36;19946;-58
2022/06/12 08:38:01;;;;;;;;;;;;;;;20.34;100.00;102217.72;2613194;31;19969;-58
2022/06/12 08:40:35;;;;;;;;;;;;;;;20.72;100.00;102209.94;2613573;36;19947;-60
2022/06/12 08:43:08;;;;;;;;;;;;;;;20.71;100.00;102213.69;2613113;36;19955;-59
2022/06/12 08:45:41;;;;;;;;;;;;;;;20.99;100.00;102210.63;2613427;36;19954;-59
2022/06/12 08:48:11;;;;;;;;;;;;;;;20.78;100.00;102208.41;2613091;36;20436;-58
2022/06/12 08:50:45;;;;;;;;;;;;;;;20.34;100.00;102206.78;2613576;36;19954;-60
2022/06/12 08:53:16;;;;;;;;;;;;;;;20.38;100.00;102201.84;2612434;36;19953;-59
2022/06/12 08:55:47;;;;;;;;;;;;;;;20.51;100.00;102193.13;2612877;36;19993;-60
2022/06/12 08:58:18;;;;;;;;;;;;;;;21.14;100.00;102202.56;2612880;36;19951;-58
2022/06/12 09:00:46;;;;;;;;;;;;;;;20.83;100.00;102193.19;2613282;36;19958;-62
2022/06/12 09:03:16;;;;;;;;;;;;;;;20.86;100.00;102189.25;2613129;36;19946;-60
2022/06/12 09:05:54;;;;;;;;;;;;;;;20.71;100.00;102182.75;2614292;31;20537;-59
2022/06/12 09:08:27;;;;;;;;;;;;;;;21.22;100.00;102177.91;2612608;31;19950;-59
2022/06/12 09:10:59;;;;;;;;;;;;;;;20.92;100.00;102185.84;2612686;36;19946;-59
2022/06/12 09:13:29;;;;;;;;;;;;;;;20.80;100.00;102184.47;2612925;36;19951;-59
2022/06/12 09:16:01;;;;;;;;;;;;;;;20.84;100.00;102180.38;2613667;36;19950;-59
2022/06/12 09:18:35;;;;;;;;;;;;;;;20.60;100.00;102176.56;2613235;31;20508;-59
2022/06/12 09:21:08;;;;;;;;;;;;;;;21.37;100.00;102174.47;2613501;36;19950;-61
2022/06/12 09:23:42;;;;;;;;;;;;;;;21.19;100.00;102189.22;2612572;36;20452;-59
2022/06/12 09:26:16;;;;;;;;;;;;;;;21.52;100.00;102179.06;2612775;36;19953;-59
2022/06/12 09:28:48;;;;;;;;;;;;;;;21.49;100.00;102173.03;2613682;31;20392;-58
2022/06/12 09:31:19;;;;;;;;;;;;;;;21.50;100.00;102181.13;2612979;36;19953;-59
2022/06/12 09:33:50;;;;;;;;;;;;;;;22.30;100.00;102186.53;2613831;36;19950;-58
2022/06/12 09:36:30;;;;;;;;;;;;;;;22.47;100.00;102181.84;2613084;36;19946;-60
2022/06/12 09:39:04;;;;;;;;;;;;;;;22.67;100.00;102174.81;2613176;31;19947;-60
2022/06/12 09:41:41;;;;;;;;;;;;;;;23.01;100.00;102165.25;2612831;36;19981;-60
2022/06/12 09:44:14;;;;;;;;;;;;;;;23.00;100.00;102177.25;2613051;31;20010;-62
2022/06/12 09:46:48;;;;;;;;;;;;;;;22.91;100.00;102167.41;2613631;36;19957;-60
2022/06/12 09:49:26;;;;;;;;;;;;;;;23.15;97.67;102173.72;2614145;31;20457;-59
2022/06/12 09:52:04;;;;;;;;;;;;;;;23.40;97.40;102169.63;2613102;36;19950;-62
2022/06/12 09:54:43;;;;;;;;;;;;;;;22.84;100.00;102172.78;2612727;36;19953;-59
2022/06/12 09:57:17;;;;;;;;;;;;;;;22.78;100.00;102173.53;2612843;36;19978;-59
2022/06/12 09:59:48;;;;;;;;;;;;;;;21.99;100.00;102177.28;2613294;36;20089;-61
2022/06/12 10:02:19;;;;;;;;;;;;;;;21.95;100.00;102173.22;2612746;36;19974;-59
2022/06/12 10:04:51;;;;;;;;;;;;;;;21.80;100.00;102172.25;2613840;31;19946;-61
2022/06/12 10:07:27;;;;;;;;;;;;;;;22.52;100.00;102184.88;2612864;36;20409;-57
2022/06/12 10:09:59;;;;;;;;;;;;;;;22.34;100.00;102188.78;2612286;36;19951;-58
2022/06/12 10:12:30;;;;;;;;;;;;;;;23.01;98.91;102178.09;2612193;36;19981;-59
2022/06/12 10:15:00;;;;;;;;;;;;;;;23.47;92.77;102177.13;2613873;36;20355;-59
2022/06/12 10:17:32;;;;;;;;;;;;;;;22.43;97.92;102183.25;2613460;31;19947;-61
2022/06/12 10:20:03;;;;;;;;;;;;;;;22.63;99.28;102184.47;2614275;36;19947;-61
2022/06/12 10:22:37;;;;;;;;;;;;;;;22.55;93.91;102190.84;2614154;36;20415;-62
2022/06/12 10:25:06;;;;;;;;;;;;;;;22.65;100.00;102184.28;2613870;36;20363;-59
2022/06/12 10:27:42;;;;;;;;;;;;;;;22.07;95.45;102187.38;2613845;36;20436;-62
2022/06/12 10:30:24;;;;;;;;;;;;;;;22.09;100.00;102181.72;2613210;31;19946;-60
2022/06/12 10:32:53;;;;;;;;;;;;;;;22.50;96.25;102184.22;2614404;36;19958;-59
2022/06/12 10:35:23;;;;;;;;;;;;;;;21.88;92.29;102172.22;2613702;36;20043;-58
2022/06/12 10:37:54;;;;;;;;;;;;;;;22.20;91.98;102179.41;2614428;36;19966;-60
2022/06/12 10:40:24;;;;;;;;;;;;;;;22.65;89.10;102190.59;2613779;36;19954;-59
2022/06/12 10:42:53;;;;;;;;;;;;;;;22.86;89.12;102183.56;2613835;36;19985;-61
2022/06/12 10:45:23;;;;;;;;;;;;;;;22.48;88.22;102180.78;2613707;36;19954;-59
2022/06/12 10:47:52;;;;;;;;;;;;;;;22.36;86.17;102177.63;2614151;36;19954;-58
2022/06/12 10:50:22;;;;;;;;;;;;;;;22.50;79.66;102176.81;2613928;36;20452;-59
2022/06/12 10:52:59;;;;;;;;;;;;;;;21.84;89.62;102166.25;2613909;31;19957;-58
2022/06/12 10:55:37;;;;;;;;;;;;;;;21.85;95.43;102172.59;2613261;31;19950;-61
2022/06/12 10:58:09;;;;;;;;;;;;;;;22.22;91.65;102176.50;2613838;36;19958;-61
2022/06/12 11:00:42;;;;;;;;;;;;;;;22.70;81.98;102177.19;2613979;36;19965;-58
2022/06/12 11:03:17;;;;;;;;;;;;;;;22.85;75.26;102169.00;2613852;36;20038;-58
2022/06/12 11:05:54;;;;;;;;;;;;;;;23.45;64.50;102166.31;2613262;36;19946;-59
2022/06/12 11:08:31;;;;;;;;;;;;;;;23.41;64.69;102168.59;2614006;36;19946;-60
2022/06/12 11:11:03;;;;;;;;;;;;;;;22.84;76.74;102178.25;2613752;36;19951;-62
2022/06/12 11:13:43;;;;;;;;;;;;;;;23.42;75.35;102164.81;2613403;36;19969;-58
2022/06/12 11:16:18;;;;;;;;;;;;;;;23.18;60.71;102173.34;2614083;36;20376;-59
2022/06/12 11:18:54;;;;;;;;;;;;;;;22.83;61.23;102170.22;2614142;36;19993;-59
2022/06/12 11:21:27;;;;;;;;;;;;;;;22.61;58.91;102172.78;2613795;36;20421;-59
2022/06/12 11:24:11;;;;;;;;;;;;;;;23.30;63.59;102174.56;2613984;36;20348;-60
2022/06/12 11:26:59;;;;;;;;;;;;;;;23.66;62.55;102173.81;2613141;36;19981;-59
2022/06/12 11:29:44;;;;;;;;;;;;;;;23.47;56.30;102171.63;2613395;36;19954;-61
2022/06/12 11:32:18;;;;;;;;;;;;;;;23.35;59.85;102163.88;2613291;36;20469;-60
2022/06/12 11:34:54;;;;;;;;;;;;;;;23.60;59.38;102160.81;2613663;31;19955;-60
2022/06/12 11:37:35;;;;;;;;;;;;;;;23.84;58.22;102162.41;2612686;36;20440;-60
2022/06/12 11:40:13;;;;;;;;;;;;;;;23.42;57.17;102164.81;2613602;36;20292;-60
2022/06/12 11:42:46;;;;;;;;;;;;;;;22.83;55.10;102164.72;2613429;36;19954;-58
2022/06/12 11:45:20;;;;;;;;;;;;;;;23.22;56.41;102182.91;2613713;36;20603;-59
2022/06/12 11:47:56;;;;;;;;;;;;;;;23.39;54.57;102176.16;2613476;36;19954;-60
2022/06/12 11:50:29;;;;;;;;;;;;;;;24.08;57.43;102168.63;2614203;36;20344;-59
2022/06/12 11:53:03;;;;;;;;;;;;;;;24.27;56.53;102169.91;2613614;36;20451;-59
2022/06/12 11:55:38;;;;;;;;;;;;;;;24.65;56.24;102167.75;2613333;36;20661;-62
2022/06/12 11:58:15;;;;;;;;;;;;;;;24.38;53.32;102152.00;2613410;36;19954;-61
2022/06/12 12:00:51;;;;;;;;;;;;;;;24.59;56.00;102160.28;2613288;36;19946;-61
2022/06/12 12:03:36;;;;;;;;;;;;;;;23.75;55.15;102158.06;2613376;36;19950;-59
2022/06/12 12:06:12;;;;;;;;;;;;;;;23.19;54.59;102151.19;2613387;36;20448;-60
2022/06/12 12:08:49;;;;;;;;;;;;;;;23.55;54.71;102152.31;2613274;36;19983;-60
2022/06/12 12:11:21;;;;;;;;;;;;;;;23.65;54.40;102152.84;2613280;36;19954;-58
2022/06/12 12:13:51;;;;;;;;;;;;;;;24.09;56.58;102153.84;2613705;36;20359;-60
2022/06/12 12:16:26;;;;;;;;;;;;;;;24.58;55.57;102149.44;2613615;36;19994;-59
2022/06/12 12:18:58;;;;;;;;;;;;;;;23.56;54.75;102154.00;2613469;36;19946;-58
2022/06/12 12:21:30;;;;;;;;;;;;;;;23.94;56.57;102145.63;2613835;36;19957;-58
2022/06/12 12:23:58;;;;;;;;;;;;;;;24.37;56.08;102145.66;2613391;36;20450;-58
2022/06/12 12:26:33;;;;;;;;;;;;;;;24.76;51.75;102144.31;2612757;36;19970;-59
2022/06/12 12:29:01;;;;;;;;;;;;;;;24.50;53.22;102144.94;2613544;36;19953;-62
2022/06/12 12:31:30;;;;;;;;;;;;;;;23.66;53.56;102149.06;2613714;36;20451;-62
2022/06/12 12:33:59;;;;;;;;;;;;;;;23.54;57.29;102145.09;2613523;36;19974;-58
2022/06/12 12:41:54;;;;;;;;;;;;;;;23.87;53.72;102145.56;2613727;31;20395;-62
2022/06/12 12:44:31;;;;;;;;;;;;;;;24.07;55.19;102140.28;2612776;36;20421;-59
2022/06/12 12:47:00;;;;;;;;;;;;;;;24.88;52.74;102147.41;2613714;36;19977;-59
2022/06/12 12:49:29;;;;;;;;;;;;;;;24.70;54.39;102139.63;2613557;36;19947;-60
2022/06/12 12:52:08;;;;;;;;;;;;;;;24.49;54.53;102138.56;2613633;31;19946;-60
2022/06/12 12:54:44;;;;;;;;;;;;;;;24.44;56.06;102138.31;2613147;36;19950;-60
2022/06/12 12:57:16;;;;;;;;;;;;;;;24.94;54.42;102130.09;2613363;36;19967;-62
2022/06/12 12:59:45;;;;;;;;;;;;;;;24.39;52.83;102132.53;2614000;36;20356;-60
2022/06/12 13:02:35;;;;;;;;;;;;;;;24.56;49.84;102126.75;2613255;36;19951;-61
2022/06/12 13:05:17;;;;;;;;;;;;;;;24.96;51.19;102138.97;2613743;36;19951;-61